Terminal Aerodrome Forecast
Issued by NWS

Home | Current Version | Previous Version | Text Only | Print | Product List | Glossary On
Versions: 1 2 3 4 5 6 7 8 9 10 11 12 13 14 15 16 17 18 19 20 21 22 23 24 25 26 27 28 29 30 31 32 33 34 35 36 37 38 39 40 41 42 43 44 45 46
000
FTUS44 KHGX 032033 AAA
TAFCXO
TAF AMD
KCXO 032033Z 0321/0418 18005KT P6SM VCTS SCT045CB
      TEMPO 0321/0323 VRB15G30KT 2SM TSRA OVC030CB
     FM040100 16003KT P6SM SCT250
     FM040800 00000KT 4SM BR SKC
      TEMPO 0409/0412 2SM BR SCT008 BKN012
     FM041500 20005KT P6SM FEW025 SCT250=

USA.gov is the U.S. government's official web portal to all federal, state and local government web resources and services.